sensor_id;sensor_type;location;lat;lon;timestamp;P1;durP1;ratioP1;P2;durP2;ratioP2
26478;SDS011;14163;-26.142;27.992;2022-12-07T01:38:37;6.43;;;5.93;;
26478;SDS011;14163;-26.142;27.992;2022-12-07T01:41:07;6.03;;;5.53;;
26478;SDS011;14163;-26.142;27.992;2022-12-07T01:43:36;4.87;;;4.57;;
26478;SDS011;14163;-26.142;27.992;2022-12-07T01:46:30;4.67;;;4.37;;
26478;SDS011;14163;-26.142;27.992;2022-12-07T01:48:59;4.10;;;3.80;;
26478;SDS011;14163;-26.142;27.992;2022-12-07T01:51:29;4.37;;;4.07;;
26478;SDS011;14163;-26.142;27.992;2022-12-07T01:54:00;3.77;;;3.50;;
26478;SDS011;14163;-26.142;27.992;2022-12-07T01:56:29;3.67;;;3.47;;
26478;SDS011;14163;-26.142;27.992;2022-12-07T01:59:00;3.57;;;3.37;;
26478;SDS011;14163;-26.142;27.992;2022-12-07T02:01:29;3.33;;;3.03;;
26478;SDS011;14163;-26.142;27.992;2022-12-07T02:03:58;3.50;;;3.30;;
26478;SDS011;14163;-26.142;27.992;2022-12-07T02:06:28;3.50;;;3.20;;
26478;SDS011;14163;-26.142;27.992;2022-12-07T02:08:58;4.40;;;4.10;;
26478;SDS011;14163;-26.142;27.992;2022-12-07T02:11:28;4.97;;;4.23;;
26478;SDS011;14163;-26.142;27.992;2022-12-07T02:13:58;3.90;;;3.70;;
26478;SDS011;14163;-26.142;27.992;2022-12-07T02:16:29;3.50;;;3.20;;
26478;SDS011;14163;-26.142;27.992;2022-12-07T02:19:09;5.00;;;4.47;;
26478;SDS011;14163;-26.142;27.992;2022-12-07T02:22:01;5.27;;;4.77;;
26478;SDS011;14163;-26.142;27.992;2022-12-07T02:24:48;5.40;;;4.87;;
26478;SDS011;14163;-26.142;27.992;2022-12-07T02:27:27;5.07;;;4.60;;
26478;SDS011;14163;-26.142;27.992;2022-12-07T02:30:07;5.50;;;5.20;;
26478;SDS011;14163;-26.142;27.992;2022-12-07T02:32:40;5.90;;;5.40;;
26478;SDS011;14163;-26.142;27.992;2022-12-07T02:35:18;5.70;;;5.27;;
26478;SDS011;14163;-26.142;27.992;2022-12-07T02:37:53;6.33;;;5.20;;
26478;SDS011;14163;-26.142;27.992;2022-12-07T02:40:28;7.03;;;5.00;;
26478;SDS011;14163;-26.142;27.992;2022-12-07T02:44:47;7.43;;;5.73;;
26478;SDS011;14163;-26.142;27.992;2022-12-07T02:47:19;5.50;;;5.00;;
26478;SDS011;14163;-26.142;27.992;2022-12-07T02:49:53;6.07;;;5.47;;
26478;SDS011;14163;-26.142;27.992;2022-12-07T02:52:22;5.63;;;5.03;;
26478;SDS011;14163;-26.142;27.992;2022-12-07T02:54:52;5.23;;;4.73;;
26478;SDS011;14163;-26.142;27.992;2022-12-07T02:57:25;6.33;;;5.70;;
26478;SDS011;14163;-26.142;27.992;2022-12-07T03:00:11;5.30;;;4.90;;
26478;SDS011;14163;-26.142;27.992;2022-12-07T03:02:50;5.23;;;4.73;;
26478;SDS011;14163;-26.142;27.992;2022-12-07T03:08:23;5.20;;;4.80;;
26478;SDS011;14163;-26.142;27.992;2022-12-07T03:10:59;4.70;;;4.30;;
26478;SDS011;14163;-26.142;27.992;2022-12-07T03:13:32;6.10;;;4.70;;
26478;SDS011;14163;-26.142;27.992;2022-12-07T03:16:11;4.70;;;4.20;;
26478;SDS011;14163;-26.142;27.992;2022-12-07T03:18:43;3.90;;;3.60;;
26478;SDS011;14163;-26.142;27.992;2022-12-07T03:21:16;3.80;;;3.20;;
26478;SDS011;14163;-26.142;27.992;2022-12-07T03:23:49;3.70;;;3.37;;
26478;SDS011;14163;-26.142;27.992;2022-12-07T03:26:21;3.33;;;3.13;;
26478;SDS011;14163;-26.142;27.992;2022-12-07T03:29:01;3.90;;;3.70;;
26478;SDS011;14163;-26.142;27.992;2022-12-07T03:31:37;3.07;;;2.87;;
26478;SDS011;14163;-26.142;27.992;2022-12-07T03:34:10;3.10;;;2.80;;
26478;SDS011;14163;-26.142;27.992;2022-12-07T03:36:45;3.40;;;3.20;;
26478;SDS011;14163;-26.142;27.992;2022-12-07T03:39:19;3.17;;;2.97;;
26478;SDS011;14163;-26.142;27.992;2022-12-07T03:41:53;3.17;;;2.97;;
26478;SDS011;14163;-26.142;27.992;2022-12-07T03:44:23;2.80;;;2.70;;
26478;SDS011;14163;-26.142;27.992;2022-12-07T03:46:56;3.40;;;3.10;;
26478;SDS011;14163;-26.142;27.992;2022-12-07T03:49:32;3.33;;;3.07;;
26478;SDS011;14163;-26.142;27.992;2022-12-07T03:52:08;3.10;;;2.90;;
26478;SDS011;14163;-26.142;27.992;2022-12-07T03:54:46;2.40;;;2.30;;
26478;SDS011;14163;-26.142;27.992;2022-12-07T03:57:19;3.27;;;3.00;;
26478;SDS011;14163;-26.142;27.992;2022-12-07T03:59:50;3.00;;;2.90;;
26478;SDS011;14163;-26.142;27.992;2022-12-07T04:02:23;3.43;;;3.13;;
26478;SDS011;14163;-26.142;27.992;2022-12-07T04:04:54;3.73;;;3.43;;
26478;SDS011;14163;-26.142;27.992;2022-12-07T04:07:24;8.50;;;3.70;;
26478;SDS011;14163;-26.142;27.992;2022-12-07T04:09:53;3.17;;;2.97;;
26478;SDS011;14163;-26.142;27.992;2022-12-07T04:12:22;2.80;;;2.60;;
26478;SDS011;14163;-26.142;27.992;2022-12-07T04:14:51;3.33;;;3.10;;
26478;SDS011;14163;-26.142;27.992;2022-12-07T04:17:20;3.73;;;3.40;;
26478;SDS011;14163;-26.142;27.992;2022-12-07T04:19:51;3.20;;;2.93;;
26478;SDS011;14163;-26.142;27.992;2022-12-07T04:22:20;3.00;;;2.80;;
26478;SDS011;14163;-26.142;27.992;2022-12-07T04:24:50;3.60;;;3.30;;
26478;SDS011;14163;-26.142;27.992;2022-12-07T04:27:19;3.60;;;3.40;;
26478;SDS011;14163;-26.142;27.992;2022-12-07T04:29:48;3.03;;;2.83;;
26478;SDS011;14163;-26.142;27.992;2022-12-07T04:32:17;3.37;;;3.07;;
26478;SDS011;14163;-26.142;27.992;2022-12-07T04:34:48;3.77;;;3.47;;
26478;SDS011;14163;-26.142;27.992;2022-12-07T04:37:17;3.60;;;3.40;;
26478;SDS011;14163;-26.142;27.992;2022-12-07T04:39:46;4.00;;;3.80;;
26478;SDS011;14163;-26.142;27.992;2022-12-07T04:42:15;3.80;;;3.47;;
26478;SDS011;14163;-26.142;27.992;2022-12-07T04:44:45;6.30;;;4.17;;
26478;SDS011;14163;-26.142;27.992;2022-12-07T04:47:14;3.70;;;3.50;;
26478;SDS011;14163;-26.142;27.992;2022-12-07T04:49:44;4.30;;;3.93;;
26478;SDS011;14163;-26.142;27.992;2022-12-07T04:52:14;3.93;;;3.63;;
26478;SDS011;14163;-26.142;27.992;2022-12-07T04:54:44;4.13;;;3.83;;
26478;SDS011;14163;-26.142;27.992;2022-12-07T04:57:13;4.50;;;4.20;;
26478;SDS011;14163;-26.142;27.992;2022-12-07T04:59:42;3.70;;;3.40;;
26478;SDS011;14163;-26.142;27.992;2022-12-07T05:02:11;3.63;;;3.40;;
26478;SDS011;14163;-26.142;27.992;2022-12-07T05:04:40;4.33;;;3.93;;
26478;SDS011;14163;-26.142;27.992;2022-12-07T05:07:09;3.70;;;3.40;;
26478;SDS011;14163;-26.142;27.992;2022-12-07T05:09:40;3.47;;;3.27;;
26478;SDS011;14163;-26.142;27.992;2022-12-07T05:12:09;7.97;;;3.13;;
26478;SDS011;14163;-26.142;27.992;2022-12-07T05:14:38;4.30;;;3.90;;
26478;SDS011;14163;-26.142;27.992;2022-12-07T05:17:07;3.93;;;3.70;;
26478;SDS011;14163;-26.142;27.992;2022-12-07T05:19:37;4.07;;;3.33;;
26478;SDS011;14163;-26.142;27.992;2022-12-07T05:22:06;3.47;;;3.20;;
26478;SDS011;14163;-26.142;27.992;2022-12-07T05:24:35;5.33;;;3.90;;
26478;SDS011;14163;-26.142;27.992;2022-12-07T05:27:06;4.53;;;3.87;;
26478;SDS011;14163;-26.142;27.992;2022-12-07T05:29:35;3.93;;;3.67;;
26478;SDS011;14163;-26.142;27.992;2022-12-07T05:32:04;4.00;;;3.80;;
26478;SDS011;14163;-26.142;27.992;2022-12-07T05:34:33;4.00;;;3.70;;
26478;SDS011;14163;-26.142;27.992;2022-12-07T05:37:02;4.10;;;3.70;;
26478;SDS011;14163;-26.142;27.992;2022-12-07T05:39:31;4.33;;;4.03;;
26478;SDS011;14163;-26.142;27.992;2022-12-07T05:42:00;4.03;;;3.60;;
26478;SDS011;14163;-26.142;27.992;2022-12-07T05:44:45;3.63;;;3.33;;
26478;SDS011;14163;-26.142;27.992;2022-12-07T05:47:14;4.87;;;4.47;;
26478;SDS011;14163;-26.142;27.992;2022-12-07T05:49:44;5.00;;;4.23;;
26478;SDS011;14163;-26.142;27.992;2022-12-07T05:52:13;3.80;;;3.50;;
26478;SDS011;14163;-26.142;27.992;2022-12-07T05:54:42;3.40;;;3.20;;
26478;SDS011;14163;-26.142;27.992;2022-12-07T05:57:11;4.13;;;3.73;;
26478;SDS011;14163;-26.142;27.992;2022-12-07T05:59:40;3.33;;;3.03;;
26478;SDS011;14163;-26.142;27.992;2022-12-07T08:10:28;3.13;;;2.93;;
26478;SDS011;14163;-26.142;27.992;2022-12-07T08:12:58;3.13;;;2.90;;
26478;SDS011;14163;-26.142;27.992;2022-12-07T08:15:39;3.03;;;2.83;;
26478;SDS011;14163;-26.142;27.992;2022-12-07T08:18:10;3.00;;;2.80;;
26478;SDS011;14163;-26.142;27.992;2022-12-07T08:20:39;4.73;;;3.37;;
26478;SDS011;14163;-26.142;27.992;2022-12-07T08:23:09;2.73;;;2.53;;
26478;SDS011;14163;-26.142;27.992;2022-12-07T08:25:40;3.37;;;3.10;;
26478;SDS011;14163;-26.142;27.992;2022-12-07T08:28:09;3.33;;;3.00;;
26478;SDS011;14163;-26.142;27.992;2022-12-07T08:30:39;3.17;;;2.97;;
26478;SDS011;14163;-26.142;27.992;2022-12-07T08:33:08;3.70;;;3.40;;
26478;SDS011;14163;-26.142;27.992;2022-12-07T08:35:38;3.73;;;3.43;;
26478;SDS011;14163;-26.142;27.992;2022-12-07T08:38:07;3.67;;;3.03;;
26478;SDS011;14163;-26.142;27.992;2022-12-07T08:40:36;2.80;;;2.43;;
26478;SDS011;14163;-26.142;27.992;2022-12-07T08:43:07;3.00;;;2.60;;
26478;SDS011;14163;-26.142;27.992;2022-12-07T08:45:36;3.10;;;2.63;;
26478;SDS011;14163;-26.142;27.992;2022-12-07T08:48:09;3.10;;;2.90;;
26478;SDS011;14163;-26.142;27.992;2022-12-07T08:50:43;2.90;;;2.70;;
26478;SDS011;14163;-26.142;27.992;2022-12-07T08:53:12;2.83;;;2.63;;
26478;SDS011;14163;-26.142;27.992;2022-12-07T08:55:42;3.27;;;2.20;;
26478;SDS011;14163;-26.142;27.992;2022-12-07T08:58:14;2.77;;;2.67;;
26478;SDS011;14163;-26.142;27.992;2022-12-07T09:00:43;2.70;;;2.50;;
26478;SDS011;14163;-26.142;27.992;2022-12-07T09:03:13;7.40;;;2.90;;
26478;SDS011;14163;-26.142;27.992;2022-12-07T09:05:42;12.53;;;2.60;;
26478;SDS011;14163;-26.142;27.992;2022-12-07T09:08:11;7.20;;;3.10;;
26478;SDS011;14163;-26.142;27.992;2022-12-07T09:10:40;4.10;;;2.10;;
26478;SDS011;14163;-26.142;27.992;2022-12-07T09:13:09;2.70;;;2.50;;
26478;SDS011;14163;-26.142;27.992;2022-12-07T09:15:40;2.43;;;2.30;;
26478;SDS011;14163;-26.142;27.992;2022-12-07T09:18:09;2.50;;;2.30;;
26478;SDS011;14163;-26.142;27.992;2022-12-07T09:20:38;3.73;;;2.17;;
26478;SDS011;14163;-26.142;27.992;2022-12-07T09:23:07;1.83;;;1.73;;
26478;SDS011;14163;-26.142;27.992;2022-12-07T09:25:37;1.70;;;1.60;;
26478;SDS011;14163;-26.142;27.992;2022-12-07T09:28:06;1.60;;;1.50;;
26478;SDS011;14163;-26.142;27.992;2022-12-07T09:30:35;2.27;;;2.07;;
26478;SDS011;14163;-26.142;27.992;2022-12-07T09:33:05;2.40;;;1.80;;
26478;SDS011;14163;-26.142;27.992;2022-12-07T09:35:35;2.50;;;2.30;;
26478;SDS011;14163;-26.142;27.992;2022-12-07T09:38:04;2.40;;;2.30;;
26478;SDS011;14163;-26.142;27.992;2022-12-07T09:40:33;1.70;;;1.60;;
26478;SDS011;14163;-26.142;27.992;2022-12-07T09:43:02;4.10;;;1.70;;
26478;SDS011;14163;-26.142;27.992;2022-12-07T09:45:32;2.00;;;1.60;;
26478;SDS011;14163;-26.142;27.992;2022-12-07T09:48:05;1.60;;;1.60;;
26478;SDS011;14163;-26.142;27.992;2022-12-07T09:50:40;2.13;;;1.93;;
26478;SDS011;14163;-26.142;27.992;2022-12-07T09:53:09;1.63;;;1.53;;
26478;SDS011;14163;-26.142;27.992;2022-12-07T09:55:43;1.77;;;1.63;;
26478;SDS011;14163;-26.142;27.992;2022-12-07T09:58:12;2.40;;;1.47;;
26478;SDS011;14163;-26.142;27.992;2022-12-07T10:00:48;2.13;;;2.03;;
26478;SDS011;14163;-26.142;27.992;2022-12-07T10:03:19;2.10;;;1.90;;
26478;SDS011;14163;-26.142;27.992;2022-12-07T10:05:49;2.00;;;1.90;;
26478;SDS011;14163;-26.142;27.992;2022-12-07T10:08:20;1.60;;;1.60;;
26478;SDS011;14163;-26.142;27.992;2022-12-07T10:10:50;2.20;;;2.10;;
26478;SDS011;14163;-26.142;27.992;2022-12-07T10:13:21;2.57;;;1.90;;
26478;SDS011;14163;-26.142;27.992;2022-12-07T10:16:01;1.93;;;1.70;;
26478;SDS011;14163;-26.142;27.992;2022-12-07T10:18:33;2.73;;;2.10;;
26478;SDS011;14163;-26.142;27.992;2022-12-07T10:21:10;1.97;;;1.87;;
26478;SDS011;14163;-26.142;27.992;2022-12-07T10:23:42;1.80;;;1.70;;
26478;SDS011;14163;-26.142;27.992;2022-12-07T10:26:32;2.80;;;1.80;;
26478;SDS011;14163;-26.142;27.992;2022-12-07T10:29:04;2.40;;;2.30;;
26478;SDS011;14163;-26.142;27.992;2022-12-07T10:31:43;2.17;;;2.07;;
26478;SDS011;14163;-26.142;27.992;2022-12-07T10:34:21;2.17;;;2.07;;
26478;SDS011;14163;-26.142;27.992;2022-12-07T10:36:51;10.63;;;2.90;;
26478;SDS011;14163;-26.142;27.992;2022-12-07T10:39:22;2.43;;;2.33;;
26478;SDS011;14163;-26.142;27.992;2022-12-07T10:41:54;2.10;;;2.00;;
26478;SDS011;14163;-26.142;27.992;2022-12-07T10:44:25;2.23;;;2.03;;
26478;SDS011;14163;-26.142;27.992;2022-12-07T10:52:48;2.53;;;2.43;;
26478;SDS011;14163;-26.142;27.992;2022-12-07T10:55:32;2.73;;;2.63;;
26478;SDS011;14163;-26.142;27.992;2022-12-07T10:58:17;3.47;;;2.90;;
26478;SDS011;14163;-26.142;27.992;2022-12-07T11:01:01;2.60;;;2.50;;
26478;SDS011;14163;-26.142;27.992;2022-12-07T11:03:47;2.63;;;2.53;;
26478;SDS011;14163;-26.142;27.992;2022-12-07T11:06:29;2.67;;;2.47;;
26478;SDS011;14163;-26.142;27.992;2022-12-07T11:09:15;2.87;;;2.67;;
26478;SDS011;14163;-26.142;27.992;2022-12-07T11:11:58;3.10;;;2.80;;
26478;SDS011;14163;-26.142;27.992;2022-12-07T11:14:35;3.03;;;2.70;;
26478;SDS011;14163;-26.142;27.992;2022-12-07T11:17:09;2.43;;;2.33;;
26478;SDS011;14163;-26.142;27.992;2022-12-07T11:19:50;2.77;;;2.63;;
26478;SDS011;14163;-26.142;27.992;2022-12-07T11:22:32;3.53;;;3.17;;
26478;SDS011;14163;-26.142;27.992;2022-12-07T11:25:14;2.80;;;2.70;;
26478;SDS011;14163;-26.142;27.992;2022-12-07T11:27:55;3.73;;;2.70;;
26478;SDS011;14163;-26.142;27.992;2022-12-07T11:30:42;3.23;;;2.67;;
26478;SDS011;14163;-26.142;27.992;2022-12-07T11:33:21;4.23;;;2.67;;
26478;SDS011;14163;-26.142;27.992;2022-12-07T11:36:02;4.43;;;2.73;;
26478;SDS011;14163;-26.142;27.992;2022-12-07T11:38:42;7.50;;;2.70;;
26478;SDS011;14163;-26.142;27.992;2022-12-07T11:41:16;5.23;;;2.90;;
26478;SDS011;14163;-26.142;27.992;2022-12-07T11:43:52;5.57;;;2.87;;
26478;SDS011;14163;-26.142;27.992;2022-12-07T11:46:24;7.13;;;2.53;;
26478;SDS011;14163;-26.142;27.992;2022-12-07T11:48:59;3.67;;;2.97;;
26478;SDS011;14163;-26.142;27.992;2022-12-07T11:51:33;4.17;;;2.47;;
26478;SDS011;14163;-26.142;27.992;2022-12-07T11:54:10;8.30;;;2.80;;
26478;SDS011;14163;-26.142;27.992;2022-12-07T11:56:44;2.70;;;2.60;;
26478;SDS011;14163;-26.142;27.992;2022-12-07T11:59:17;3.90;;;2.80;;
26478;SDS011;14163;-26.142;27.992;2022-12-07T12:01:53;3.47;;;2.33;;
26478;SDS011;14163;-26.142;27.992;2022-12-07T12:04:39;3.43;;;2.50;;
26478;SDS011;14163;-26.142;27.992;2022-12-07T12:07:18;6.93;;;2.53;;
26478;SDS011;14163;-26.142;27.992;2022-12-07T12:09:53;6.20;;;2.23;;
26478;SDS011;14163;-26.142;27.992;2022-12-07T12:12:34;4.90;;;3.23;;
26478;SDS011;14163;-26.142;27.992;2022-12-07T12:15:33;5.80;;;2.67;;
26478;SDS011;14163;-26.142;27.992;2022-12-07T12:21:08;6.27;;;2.50;;
26478;SDS011;14163;-26.142;27.992;2022-12-07T12:23:41;4.80;;;2.70;;
26478;SDS011;14163;-26.142;27.992;2022-12-07T12:26:17;4.57;;;2.90;;
26478;SDS011;14163;-26.142;27.992;2022-12-07T12:28:50;3.30;;;3.00;;
26478;SDS011;14163;-26.142;27.992;2022-12-07T12:31:32;10.30;;;3.33;;
26478;SDS011;14163;-26.142;27.992;2022-12-07T12:34:29;3.50;;;3.17;;
26478;SDS011;14163;-26.142;27.992;2022-12-07T12:37:13;6.03;;;2.87;;
26478;SDS011;14163;-26.142;27.992;2022-12-07T12:58:29;6.80;;;3.20;;
26478;SDS011;14163;-26.142;27.992;2022-12-07T13:07:47;5.57;;;2.87;;
26478;SDS011;14163;-26.142;27.992;2022-12-07T13:10:39;5.80;;;2.67;;
26478;SDS011;14163;-26.142;27.992;2022-12-07T13:25:11;2.50;;;2.20;;
26478;SDS011;14163;-26.142;27.992;2022-12-07T13:27:47;7.60;;;2.47;;
26478;SDS011;14163;-26.142;27.992;2022-12-07T13:30:22;2.20;;;2.00;;
26478;SDS011;14163;-26.142;27.992;2022-12-07T13:32:52;5.93;;;2.83;;
26478;SDS011;14163;-26.142;27.992;2022-12-07T13:35:29;3.60;;;2.27;;
26478;SDS011;14163;-26.142;27.992;2022-12-07T13:37:59;8.80;;;2.40;;
26478;SDS011;14163;-26.142;27.992;2022-12-07T13:40:35;4.53;;;2.10;;
26478;SDS011;14163;-26.142;27.992;2022-12-07T13:43:04;4.10;;;2.23;;
26478;SDS011;14163;-26.142;27.992;2022-12-07T13:45:42;3.27;;;2.20;;
26478;SDS011;14163;-26.142;27.992;2022-12-07T13:48:19;4.97;;;2.20;;
26478;SDS011;14163;-26.142;27.992;2022-12-07T13:50:53;3.40;;;1.90;;
26478;SDS011;14163;-26.142;27.992;2022-12-07T13:53:22;2.17;;;1.97;;
26478;SDS011;14163;-26.142;27.992;2022-12-07T13:55:55;2.03;;;1.53;;
26478;SDS011;14163;-26.142;27.992;2022-12-07T13:58:25;3.20;;;1.50;;
26478;SDS011;14163;-26.142;27.992;2022-12-07T14:00:57;1.10;;;1.00;;
26478;SDS011;14163;-26.142;27.992;2022-12-07T17:13:17;5.33;;;4.93;;
26478;SDS011;14163;-26.142;27.992;2022-12-07T17:16:03;7.30;;;6.60;;
26478;SDS011;14163;-26.142;27.992;2022-12-07T17:18:34;5.73;;;5.33;;
26478;SDS011;14163;-26.142;27.992;2022-12-07T17:21:04;5.90;;;5.30;;
26478;SDS011;14163;-26.142;27.992;2022-12-07T17:23:34;5.90;;;5.40;;
26478;SDS011;14163;-26.142;27.992;2022-12-07T17:26:05;5.70;;;5.20;;
26478;SDS011;14163;-26.142;27.992;2022-12-07T17:28:36;4.83;;;4.53;;
26478;SDS011;14163;-26.142;27.992;2022-12-07T17:31:06;33.60;;;30.23;;
26478;SDS011;14163;-26.142;27.992;2022-12-07T17:33:36;7.90;;;7.23;;
26478;SDS011;14163;-26.142;27.992;2022-12-07T17:36:09;7.80;;;7.13;;
26478;SDS011;14163;-26.142;27.992;2022-12-07T17:38:39;7.70;;;6.37;;
26478;SDS011;14163;-26.142;27.992;2022-12-07T17:41:09;7.20;;;6.60;;
26478;SDS011;14163;-26.142;27.992;2022-12-07T17:44:01;6.90;;;6.20;;
26478;SDS011;14163;-26.142;27.992;2022-12-07T17:46:31;7.60;;;7.00;;
26478;SDS011;14163;-26.142;27.992;2022-12-07T17:49:00;7.17;;;6.47;;
26478;SDS011;14163;-26.142;27.992;2022-12-07T17:51:30;7.00;;;6.40;;
26478;SDS011;14163;-26.142;27.992;2022-12-07T17:54:16;7.87;;;7.13;;
26478;SDS011;14163;-26.142;27.992;2022-12-07T17:56:45;8.60;;;7.00;;
26478;SDS011;14163;-26.142;27.992;2022-12-07T17:59:16;7.50;;;6.73;;
26478;SDS011;14163;-26.142;27.992;2022-12-07T18:01:45;7.43;;;6.70;;
26478;SDS011;14163;-26.142;27.992;2022-12-07T18:04:14;10.90;;;9.90;;
26478;SDS011;14163;-26.142;27.992;2022-12-07T18:06:44;32.93;;;29.37;;
26478;SDS011;14163;-26.142;27.992;2022-12-07T18:09:13;10.60;;;9.50;;
26478;SDS011;14163;-26.142;27.992;2022-12-07T18:13:22;6.70;;;5.33;;
26478;SDS011;14163;-26.142;27.992;2022-12-07T18:16:03;7.97;;;6.17;;
26478;SDS011;14163;-26.142;27.992;2022-12-07T18:18:34;6.00;;;5.40;;
26478;SDS011;14163;-26.142;27.992;2022-12-07T18:21:03;6.43;;;5.93;;
26478;SDS011;14163;-26.142;27.992;2022-12-07T18:23:34;7.70;;;6.80;;
26478;SDS011;14163;-26.142;27.992;2022-12-07T18:26:03;7.20;;;6.40;;
26478;SDS011;14163;-26.142;27.992;2022-12-07T18:28:34;6.20;;;5.60;;
26478;SDS011;14163;-26.142;27.992;2022-12-07T18:31:03;6.33;;;5.70;;
26478;SDS011;14163;-26.142;27.992;2022-12-07T18:33:32;8.90;;;6.57;;
26478;SDS011;14163;-26.142;27.992;2022-12-07T18:36:02;8.93;;;8.03;;
26478;SDS011;14163;-26.142;27.992;2022-12-07T18:38:32;8.03;;;7.23;;
26478;SDS011;14163;-26.142;27.992;2022-12-07T18:41:02;8.33;;;7.57;;
26478;SDS011;14163;-26.142;27.992;2022-12-07T18:43:35;8.17;;;6.60;;
26478;SDS011;14163;-26.142;27.992;2022-12-07T18:46:08;7.47;;;6.80;;
26478;SDS011;14163;-26.142;27.992;2022-12-07T18:48:38;9.33;;;7.93;;
26478;SDS011;14163;-26.142;27.992;2022-12-07T18:51:08;10.70;;;8.13;;
26478;SDS011;14163;-26.142;27.992;2022-12-07T18:53:38;7.87;;;7.17;;
26478;SDS011;14163;-26.142;27.992;2022-12-07T18:56:09;8.60;;;7.73;;
26478;SDS011;14163;-26.142;27.992;2022-12-07T18:58:41;8.13;;;7.30;;
26478;SDS011;14163;-26.142;27.992;2022-12-07T19:01:24;8.43;;;7.43;;
26478;SDS011;14163;-26.142;27.992;2022-12-07T19:03:54;9.70;;;7.70;;
26478;SDS011;14163;-26.142;27.992;2022-12-07T19:06:24;7.77;;;7.00;;
26478;SDS011;14163;-26.142;27.992;2022-12-07T19:08:53;7.90;;;7.10;;
26478;SDS011;14163;-26.142;27.992;2022-12-07T19:11:23;7.73;;;6.93;;
26478;SDS011;14163;-26.142;27.992;2022-12-07T19:14:13;9.57;;;6.90;;
26478;SDS011;14163;-26.142;27.992;2022-12-07T19:16:43;6.60;;;6.10;;
26478;SDS011;14163;-26.142;27.992;2022-12-07T19:19:14;19.37;;;12.43;;
26478;SDS011;14163;-26.142;27.992;2022-12-07T19:21:44;10.40;;;7.33;;
26478;SDS011;14163;-26.142;27.992;2022-12-07T19:24:13;9.33;;;8.37;;
26478;SDS011;14163;-26.142;27.992;2022-12-07T19:26:43;11.37;;;8.93;;
26478;SDS011;14163;-26.142;27.992;2022-12-07T19:29:14;15.90;;;9.93;;
26478;SDS011;14163;-26.142;27.992;2022-12-07T19:31:43;17.97;;;11.90;;
26478;SDS011;14163;-26.142;27.992;2022-12-07T19:34:13;16.00;;;13.00;;
26478;SDS011;14163;-26.142;27.992;2022-12-07T19:36:44;13.43;;;12.03;;
26478;SDS011;14163;-26.142;27.992;2022-12-07T19:39:13;15.30;;;12.83;;
26478;SDS011;14163;-26.142;27.992;2022-12-07T19:41:42;18.80;;;14.07;;
26478;SDS011;14163;-26.142;27.992;2022-12-07T19:44:12;17.63;;;14.20;;
26478;SDS011;14163;-26.142;27.992;2022-12-07T19:46:44;17.93;;;15.17;;
26478;SDS011;14163;-26.142;27.992;2022-12-07T19:49:15;19.80;;;15.70;;
26478;SDS011;14163;-26.142;27.992;2022-12-07T19:51:46;19.43;;;14.90;;
26478;SDS011;14163;-26.142;27.992;2022-12-07T19:54:16;26.00;;;17.77;;
26478;SDS011;14163;-26.142;27.992;2022-12-07T19:56:47;21.47;;;16.93;;
26478;SDS011;14163;-26.142;27.992;2022-12-07T19:59:19;25.80;;;18.13;;
26478;SDS011;14163;-26.142;27.992;2022-12-07T20:01:49;23.40;;;18.20;;
26478;SDS011;14163;-26.142;27.992;2022-12-07T20:04:19;20.63;;;16.80;;
26478;SDS011;14163;-26.142;27.992;2022-12-07T20:06:50;20.87;;;16.80;;
26478;SDS011;14163;-26.142;27.992;2022-12-07T20:09:20;22.63;;;16.97;;
26478;SDS011;14163;-26.142;27.992;2022-12-07T20:11:50;21.10;;;17.07;;
26478;SDS011;14163;-26.142;27.992;2022-12-07T20:14:37;25.60;;;18.70;;
26478;SDS011;14163;-26.142;27.992;2022-12-07T20:17:07;23.00;;;17.53;;
26478;SDS011;14163;-26.142;27.992;2022-12-07T20:19:36;19.70;;;15.27;;
26478;SDS011;14163;-26.142;27.992;2022-12-07T20:22:05;20.60;;;16.13;;
26478;SDS011;14163;-26.142;27.992;2022-12-07T20:24:34;17.67;;;15.60;;
26478;SDS011;14163;-26.142;27.992;2022-12-07T20:27:04;20.47;;;16.80;;
26478;SDS011;14163;-26.142;27.992;2022-12-07T20:29:33;23.23;;;15.60;;
26478;SDS011;14163;-26.142;27.992;2022-12-07T20:32:04;21.33;;;16.50;;
26478;SDS011;14163;-26.142;27.992;2022-12-07T20:34:33;16.10;;;13.33;;
26478;SDS011;14163;-26.142;27.992;2022-12-07T20:37:02;16.20;;;14.37;;
26478;SDS011;14163;-26.142;27.992;2022-12-07T20:39:31;15.23;;;12.40;;
26478;SDS011;14163;-26.142;27.992;2022-12-07T20:42:00;17.27;;;14.50;;
26478;SDS011;14163;-26.142;27.992;2022-12-07T20:44:46;14.93;;;13.40;;
26478;SDS011;14163;-26.142;27.992;2022-12-07T20:47:17;16.13;;;13.57;;
26478;SDS011;14163;-26.142;27.992;2022-12-07T20:49:46;15.83;;;12.43;;
26478;SDS011;14163;-26.142;27.992;2022-12-07T20:52:15;13.80;;;11.83;;
26478;SDS011;14163;-26.142;27.992;2022-12-07T20:54:45;15.97;;;12.60;;
26478;SDS011;14163;-26.142;27.992;2022-12-07T20:57:14;12.70;;;10.93;;
26478;SDS011;14163;-26.142;27.992;2022-12-07T20:59:43;11.70;;;10.13;;
26478;SDS011;14163;-26.142;27.992;2022-12-07T21:02:12;12.50;;;11.20;;
26478;SDS011;14163;-26.142;27.992;2022-12-07T21:04:43;11.40;;;10.17;;
26478;SDS011;14163;-26.142;27.992;2022-12-07T21:07:12;14.97;;;11.37;;
26478;SDS011;14163;-26.142;27.992;2022-12-07T21:09:41;13.63;;;12.30;;
26478;SDS011;14163;-26.142;27.992;2022-12-07T21:12:12;12.80;;;11.43;;
26478;SDS011;14163;-26.142;27.992;2022-12-07T21:14:41;11.37;;;10.20;;
26478;SDS011;14163;-26.142;27.992;2022-12-07T21:17:10;11.13;;;10.03;;
26478;SDS011;14163;-26.142;27.992;2022-12-07T21:19:39;12.90;;;10.60;;
26478;SDS011;14163;-26.142;27.992;2022-12-07T21:22:10;11.93;;;10.40;;
26478;SDS011;14163;-26.142;27.992;2022-12-07T21:24:39;10.47;;;9.43;;
26478;SDS011;14163;-26.142;27.992;2022-12-07T21:27:08;11.80;;;10.60;;
26478;SDS011;14163;-26.142;27.992;2022-12-07T21:29:37;13.27;;;9.90;;
26478;SDS011;14163;-26.142;27.992;2022-12-07T21:32:06;10.50;;;9.50;;
26478;SDS011;14163;-26.142;27.992;2022-12-07T21:34:36;11.03;;;9.90;;
26478;SDS011;14163;-26.142;27.992;2022-12-07T21:37:05;11.20;;;10.00;;
26478;SDS011;14163;-26.142;27.992;2022-12-07T21:39:35;11.10;;;9.97;;
26478;SDS011;14163;-26.142;27.992;2022-12-07T21:42:05;11.13;;;9.90;;
26478;SDS011;14163;-26.142;27.992;2022-12-07T21:44:34;12.30;;;9.90;;
26478;SDS011;14163;-26.142;27.992;2022-12-07T21:47:03;10.50;;;9.50;;
26478;SDS011;14163;-26.142;27.992;2022-12-07T21:49:32;10.10;;;9.10;;
26478;SDS011;14163;-26.142;27.992;2022-12-07T21:52:01;10.50;;;9.37;;
26478;SDS011;14163;-26.142;27.992;2022-12-07T21:54:31;12.03;;;9.93;;
26478;SDS011;14163;-26.142;27.992;2022-12-07T21:57:02;10.70;;;9.47;;
26478;SDS011;14163;-26.142;27.992;2022-12-07T21:59:31;10.40;;;9.40;;
